createdAt,value
2023-01-09T00:02:07.228Z,53.83
2023-01-09T00:04:34.579Z,49.92
2023-01-09T00:07:01.605Z,43.70
2023-01-09T00:09:28.692Z,45.17
2023-01-09T00:11:55.887Z,49.33
2023-01-09T00:14:24.102Z,46.33
2023-01-09T00:16:51.191Z,54.05
2023-01-09T00:19:18.243Z,50.20
2023-01-09T00:21:45.319Z,49.17
2023-01-09T00:24:12.469Z,48.53
2023-01-09T00:26:39.533Z,49.17
2023-01-09T00:29:11.296Z,50.35
2023-01-09T00:31:38.370Z,54.63
2023-01-09T00:34:07.789Z,46.90
2023-01-09T00:36:34.903Z,49.05
2023-01-09T00:39:02.360Z,59.67
2023-01-09T00:41:35.475Z,57.08
2023-01-09T00:44:13.600Z,53.50
2023-01-09T00:46:45.240Z,52.67
2023-01-09T00:49:14.359Z,58.85
2023-01-09T00:51:42.289Z,63.03
2023-01-09T00:54:15.397Z,53.15
2023-01-09T00:56:42.644Z,60.90
2023-01-09T00:59:09.994Z,65.05
2023-01-09T01:01:37.229Z,62.05
2023-01-09T01:04:24.527Z,60.55
2023-01-09T01:07:10.094Z,64.30
2023-01-09T01:09:37.248Z,61.78
2023-01-09T01:12:07.363Z,63.70
2023-01-09T01:14:38.339Z,57.42
2023-01-09T01:17:06.048Z,55.38
2023-01-09T01:19:34.479Z,59.58
2023-01-09T01:22:01.853Z,62.05
2023-01-09T01:24:28.973Z,64.93
2023-01-09T01:26:56.094Z,75.93
2023-01-09T01:29:23.166Z,67.10
2023-01-09T01:31:52.059Z,67.68
2023-01-09T01:34:19.279Z,76.22
2023-01-09T01:36:46.366Z,65.07
2023-01-09T01:39:13.618Z,70.20
2023-01-09T01:41:40.680Z,65.43
2023-01-09T01:44:46.315Z,69.60
2023-01-09T01:49:41.055Z,60.10
2023-01-09T01:52:08.344Z,61.03
2023-01-09T01:54:35.438Z,65.07
2023-01-09T01:57:05.001Z,72.93
2023-01-09T01:59:37.936Z,71.55
2023-01-09T02:02:05.583Z,66.57
2023-01-09T02:04:35.486Z,64.00
2023-01-09T02:07:07.457Z,58.80
2023-01-09T02:09:34.833Z,67.78
2023-01-09T02:12:02.667Z,60.30
2023-01-09T02:14:32.040Z,64.07
2023-01-09T02:17:43.850Z,66.72
2023-01-09T02:20:25.286Z,63.00
2023-01-09T02:23:29.657Z,74.90
2023-01-09T02:26:17.963Z,63.88
2023-01-09T02:29:11.428Z,59.95
2023-01-09T02:31:48.836Z,76.32
2023-01-09T02:34:32.454Z,81.68
2023-01-09T02:37:05.240Z,73.25
2023-01-09T02:39:51.727Z,73.93
2023-01-09T02:42:23.852Z,68.10
2023-01-09T02:44:51.519Z,73.05
2023-01-09T02:47:18.535Z,74.25
2023-01-09T02:50:35.168Z,73.38
2023-01-09T02:53:24.329Z,68.78
2023-01-09T02:56:03.531Z,70.88
2023-01-09T02:58:51.723Z,75.53
2023-01-09T03:01:52.622Z,71.10
2023-01-09T03:04:38.929Z,72.47
2023-01-09T03:07:14.075Z,61.20
2023-01-09T03:09:43.474Z,75.47
2023-01-09T03:12:25.443Z,69.88
2023-01-09T03:14:56.619Z,68.22
2023-01-09T03:17:29.977Z,61.17
2023-01-09T03:19:59.091Z,66.07
2023-01-09T03:22:26.210Z,64.18
2023-01-09T03:24:54.362Z,57.78
2023-01-09T03:27:21.488Z,67.47
2023-01-09T03:29:48.604Z,65.95
2023-01-09T03:32:15.794Z,54.03
2023-01-09T03:34:42.977Z,52.00
2023-01-09T03:37:10.086Z,58.17
2023-01-09T03:39:37.179Z,58.13
2023-01-09T03:42:04.398Z,54.88
2023-01-09T03:44:31.469Z,60.85
2023-01-09T03:46:58.515Z,51.25
2023-01-09T03:49:25.548Z,53.80
2023-01-09T03:51:52.615Z,48.25
2023-01-09T03:54:19.659Z,53.53
2023-01-09T03:56:46.743Z,50.53
2023-01-09T03:59:13.848Z,51.45
2023-01-09T04:01:40.972Z,50.88
2023-01-09T04:04:08.132Z,54.63
2023-01-09T04:06:35.295Z,53.53
2023-01-09T04:09:02.406Z,49.00
2023-01-09T04:11:29.424Z,45.83
2023-01-09T04:13:56.483Z,49.70
2023-01-09T04:16:23.649Z,51.13
2023-01-09T04:18:50.749Z,55.35
2023-01-09T04:21:17.929Z,51.10
2023-01-09T04:23:45.564Z,48.63
2023-01-09T04:26:12.675Z,53.40
2023-01-09T04:28:39.734Z,49.95
2023-01-09T04:31:06.801Z,47.85
2023-01-09T04:33:34.702Z,51.30
2023-01-09T04:36:01.792Z,50.72
2023-01-09T04:38:28.852Z,49.75
2023-01-09T04:40:55.899Z,52.53
2023-01-09T04:43:22.925Z,51.88
2023-01-09T04:45:50.064Z,47.40
2023-01-09T04:48:17.187Z,42.95
2023-01-09T04:50:44.263Z,49.00
2023-01-09T04:53:11.395Z,51.97
2023-01-09T04:55:38.485Z,52.28
2023-01-09T04:58:05.579Z,50.50
2023-01-09T05:00:32.723Z,51.97
2023-01-09T05:02:59.812Z,54.05
2023-01-09T05:05:26.890Z,52.92
2023-01-09T05:07:53.943Z,58.70
2023-01-09T05:10:20.993Z,61.30
2023-01-09T05:12:48.081Z,65.28
2023-01-09T05:15:15.096Z,67.47
2023-01-09T05:17:42.176Z,66.20
2023-01-09T05:20:09.769Z,67.50
2023-01-09T05:22:36.859Z,58.33
2023-01-09T05:25:04.044Z,52.97
2023-01-09T05:27:31.079Z,70.93
2023-01-09T05:29:58.155Z,70.28
2023-01-09T05:32:25.222Z,68.63
2023-01-09T05:34:52.245Z,61.53
2023-01-09T05:37:19.312Z,64.03
2023-01-09T05:39:46.348Z,58.42
2023-01-09T05:42:13.366Z,60.58
2023-01-09T05:44:40.478Z,64.35
2023-01-09T05:47:07.608Z,65.60
2023-01-09T05:49:34.613Z,52.83
2023-01-09T05:52:01.653Z,60.20
2023-01-09T05:54:28.647Z,65.43
2023-01-09T05:56:55.699Z,61.35
2023-01-09T05:59:22.745Z,60.28
2023-01-09T06:01:49.805Z,63.67
2023-01-09T06:04:16.849Z,64.15
2023-01-09T06:06:43.988Z,64.10
2023-01-09T06:09:11.295Z,60.70
2023-01-09T06:11:38.735Z,66.78
2023-01-09T06:14:06.611Z,68.10
2023-01-09T06:16:33.849Z,63.13
2023-01-09T06:19:00.913Z,58.75
2023-01-09T06:21:29.756Z,54.22
2023-01-09T06:23:56.923Z,64.10
2023-01-09T06:26:24.857Z,73.43
2023-01-09T06:28:52.266Z,64.93
2023-01-09T06:31:19.500Z,55.38
2023-01-09T06:33:46.525Z,55.50
2023-01-09T06:36:13.691Z,59.75
2023-01-09T06:38:40.869Z,59.45
2023-01-09T06:41:07.903Z,59.47
2023-01-09T06:43:35.022Z,55.38
2023-01-09T06:46:02.314Z,54.08
2023-01-09T06:48:29.367Z,50.75
2023-01-09T06:50:56.430Z,61.92
2023-01-09T06:53:24.064Z,57.88
2023-01-09T06:55:51.079Z,51.33
2023-01-09T06:58:18.771Z,52.55
2023-01-09T07:00:45.754Z,58.75
2023-01-09T07:03:19.707Z,46.60
2023-01-09T07:05:47.638Z,44.78
2023-01-09T07:08:15.191Z,49.65
2023-01-09T07:10:43.599Z,53.58
2023-01-09T07:13:10.866Z,52.20
2023-01-09T07:15:37.899Z,52.28
2023-01-09T07:18:05.100Z,54.13
2023-01-09T07:20:32.233Z,47.97
2023-01-09T07:22:59.378Z,46.83
2023-01-09T07:25:26.508Z,49.78
2023-01-09T07:27:53.568Z,49.30
2023-01-09T07:30:20.631Z,62.47
2023-01-09T07:32:47.669Z,47.63
2023-01-09T07:35:14.924Z,54.03
2023-01-09T07:37:42.028Z,51.20
2023-01-09T07:40:10.025Z,53.00
2023-01-09T07:42:37.092Z,51.50
2023-01-09T07:45:05.248Z,49.20
2023-01-09T07:47:32.343Z,53.88
2023-01-09T07:49:59.371Z,52.67
2023-01-09T07:52:28.061Z,47.00
2023-01-09T07:54:55.088Z,56.33
2023-01-09T07:57:22.244Z,53.42
2023-01-09T07:59:49.243Z,51.17
2023-01-09T08:02:18.220Z,55.05
2023-01-09T08:04:45.327Z,51.80
2023-01-09T08:07:12.533Z,59.00
2023-01-09T08:09:39.714Z,56.53
2023-01-09T08:12:07.794Z,48.83
2023-01-09T08:14:36.086Z,56.67
2023-01-09T08:17:03.151Z,53.03
2023-01-09T08:19:30.271Z,53.08
2023-01-09T08:21:57.308Z,54.53
2023-01-09T08:24:24.339Z,54.22
2023-01-09T08:26:51.381Z,53.03
2023-01-09T08:29:18.441Z,48.53
2023-01-09T08:31:45.596Z,53.10
2023-01-09T08:34:12.676Z,56.30
2023-01-09T08:36:39.689Z,60.05
2023-01-09T08:39:06.712Z,53.10
2023-01-09T08:41:52.080Z,66.10
2023-01-09T08:44:37.663Z,57.15
2023-01-09T08:47:07.606Z,52.38
2023-01-09T08:49:36.632Z,64.00
2023-01-09T08:52:04.711Z,68.57
2023-01-09T08:54:32.223Z,62.58
2023-01-09T08:56:59.304Z,57.83
2023-01-09T08:59:26.440Z,68.95
2023-01-09T09:01:53.531Z,55.65
2023-01-09T09:04:20.732Z,54.10
2023-01-09T09:06:47.977Z,53.33
2023-01-09T09:09:15.250Z,50.50
2023-01-09T09:11:42.431Z,49.05
2023-01-09T09:14:28.264Z,47.20
2023-01-09T09:16:55.484Z,48.25
2023-01-09T09:19:22.559Z,50.72
2023-01-09T09:21:49.634Z,53.85
2023-01-09T09:24:16.681Z,53.95
2023-01-09T09:26:44.684Z,46.72
2023-01-09T09:29:12.282Z,50.28
2023-01-09T09:31:39.431Z,55.03
2023-01-09T09:34:07.646Z,53.45
2023-01-09T09:36:34.904Z,46.08
2023-01-09T09:39:02.911Z,54.20
2023-01-09T09:42:14.318Z,47.58
2023-01-09T09:45:16.726Z,40.88
2023-01-09T09:47:53.759Z,45.97
2023-01-09T09:50:49.706Z,47.38
2023-01-09T09:53:20.303Z,49.60
2023-01-09T09:55:49.721Z,45.92
2023-01-09T09:58:21.964Z,58.90
2023-01-09T10:00:50.825Z,49.58
2023-01-09T10:03:40.239Z,61.50
2023-01-09T10:06:17.150Z,65.25
2023-01-09T10:08:57.226Z,62.88
2023-01-09T10:11:47.698Z,57.92
2023-01-09T10:14:23.734Z,54.22
2023-01-09T10:17:09.328Z,56.13
2023-01-09T10:20:30.288Z,54.65
2023-01-09T10:23:27.458Z,59.10
2023-01-09T10:26:06.576Z,48.75
2023-01-09T10:28:50.359Z,51.88
2023-01-09T10:31:30.188Z,47.63
2023-01-09T10:34:09.332Z,61.15
2023-01-09T10:37:16.261Z,52.53
2023-01-09T10:39:55.926Z,51.40
2023-01-09T10:42:48.775Z,56.45
2023-01-09T10:45:37.400Z,54.92
2023-01-09T10:48:18.278Z,55.40
2023-01-09T10:50:48.040Z,44.22
2023-01-09T10:53:20.336Z,48.05
2023-01-09T10:55:48.833Z,57.45
2023-01-09T10:58:21.053Z,42.42
2023-01-09T11:00:49.651Z,47.67
2023-01-09T11:03:20.607Z,49.92
2023-01-09T11:05:53.171Z,46.40
2023-01-09T11:08:42.865Z,48.35
2023-01-09T11:11:12.846Z,36.50
2023-01-09T11:13:45.475Z,43.33
2023-01-09T11:16:21.559Z,44.60
2023-01-09T11:18:59.145Z,43.30
2023-01-09T11:21:40.768Z,41.28
2023-01-09T11:24:21.369Z,29.75
2023-01-09T11:26:53.657Z,36.92
2023-01-09T11:29:26.716Z,30.73
2023-01-09T11:31:58.982Z,34.55
2023-01-09T11:34:31.717Z,25.08
2023-01-09T11:37:14.027Z,25.23
2023-01-09T11:39:48.191Z,25.48
2023-01-09T11:42:42.759Z,24.45
2023-01-09T11:45:21.384Z,21.20
2023-01-09T11:47:48.472Z,27.35
2023-01-09T11:50:21.360Z,24.38
2023-01-09T11:53:16.274Z,23.77
2023-01-09T11:55:44.527Z,22.52
2023-01-09T11:58:16.842Z,20.00
2023-01-09T12:01:07.962Z,19.55
2023-01-09T12:03:40.789Z,15.60
2023-01-09T12:06:17.030Z,17.50
2023-01-09T12:08:46.976Z,16.00
2023-01-09T12:11:31.452Z,17.35
2023-01-09T12:14:10.434Z,15.10
2023-01-09T12:17:08.336Z,14.38
2023-01-09T12:20:13.178Z,17.95
2023-01-09T12:23:12.159Z,12.98
2023-01-09T12:25:52.471Z,13.75
2023-01-09T12:28:34.449Z,15.32
2023-01-09T12:31:36.685Z,12.57
2023-01-09T12:34:40.465Z,11.70
2023-01-09T12:37:39.467Z,14.95
2023-01-09T12:40:24.438Z,12.02
2023-01-09T12:43:05.938Z,11.68
2023-01-09T12:45:51.720Z,14.02
2023-01-09T12:48:43.435Z,13.45
2023-01-09T12:51:20.893Z,11.32
2023-01-09T12:53:57.487Z,12.13
2023-01-09T12:56:30.967Z,13.85
2023-01-09T12:59:04.946Z,14.93
2023-01-09T13:01:42.568Z,11.93
2023-01-09T13:04:15.056Z,11.30
2023-01-09T13:06:47.010Z,12.10
2023-01-09T13:09:41.762Z,11.35
2023-01-09T13:12:21.419Z,12.15
2023-01-09T13:15:15.110Z,14.70
2023-01-09T13:18:08.669Z,12.00
2023-01-09T13:20:46.624Z,12.07
2023-01-09T13:23:40.391Z,11.20
2023-01-09T13:26:15.081Z,9.52
2023-01-09T13:28:47.189Z,10.48
2023-01-09T13:31:36.448Z,11.40
2023-01-09T13:34:17.707Z,10.50
2023-01-09T13:36:52.404Z,12.15
2023-01-09T13:39:30.060Z,10.30
2023-01-09T13:42:20.766Z,10.38
2023-01-09T13:44:50.127Z,12.30
2023-01-09T13:47:28.601Z,12.15
2023-01-09T13:50:09.485Z,11.85
2023-01-09T13:52:41.946Z,13.32
2023-01-09T13:55:12.069Z,11.75
2023-01-09T13:57:43.984Z,14.30
2023-01-09T14:00:14.701Z,17.45
2023-01-09T14:02:42.540Z,14.82
2023-01-09T14:05:24.869Z,12.82
2023-01-09T14:08:10.786Z,13.23
2023-01-09T14:10:49.239Z,12.85
2023-01-09T14:13:23.828Z,14.07
2023-01-09T14:15:53.575Z,13.48
2023-01-09T14:18:25.392Z,14.45
2023-01-09T14:21:01.348Z,15.15
2023-01-09T14:23:51.082Z,16.75
2023-01-09T14:26:25.430Z,13.98
2023-01-09T14:28:52.701Z,16.95
2023-01-09T14:31:31.394Z,13.93
2023-01-09T14:34:30.975Z,13.23
2023-01-09T14:37:01.349Z,16.90
2023-01-09T14:39:31.991Z,16.63
2023-01-09T14:42:06.943Z,20.98
2023-01-09T14:44:40.950Z,17.73
2023-01-09T14:47:40.106Z,18.33
2023-01-09T14:50:34.348Z,20.58
2023-01-09T14:53:10.590Z,19.00
2023-01-09T14:55:54.461Z,14.32
2023-01-09T14:58:29.322Z,17.83
2023-01-09T15:01:16.683Z,14.55
2023-01-09T15:03:59.201Z,15.50
2023-01-09T15:06:30.018Z,13.55
2023-01-09T15:09:02.969Z,11.02
2023-01-09T15:11:32.142Z,10.65
2023-01-09T15:14:03.755Z,11.77
2023-01-09T15:16:32.979Z,9.43
2023-01-09T15:19:03.853Z,10.77
2023-01-09T15:21:32.682Z,9.07
2023-01-09T15:24:22.328Z,8.73
2023-01-09T15:26:55.017Z,10.02
2023-01-09T15:29:23.000Z,11.93
2023-01-09T15:32:00.405Z,10.27
2023-01-09T15:34:27.738Z,9.57
2023-01-09T15:36:55.289Z,9.25
2023-01-09T15:39:31.556Z,9.70
2023-01-09T15:42:19.158Z,10.65
2023-01-09T15:44:48.700Z,10.45
2023-01-09T15:47:20.503Z,13.13
2023-01-09T15:49:48.046Z,10.80
2023-01-09T15:52:17.082Z,14.10
2023-01-09T15:54:49.262Z,12.25
2023-01-09T15:57:25.838Z,13.57
2023-01-09T15:59:54.166Z,10.95
2023-01-09T16:02:41.625Z,10.65
2023-01-09T16:05:18.417Z,13.32
2023-01-09T16:07:47.157Z,13.35
2023-01-09T16:10:26.609Z,14.52
2023-01-09T16:12:54.879Z,11.38
2023-01-09T16:15:22.664Z,12.18
2023-01-09T16:18:17.469Z,11.18
2023-01-09T16:20:45.610Z,12.88
2023-01-09T16:23:28.733Z,13.10
2023-01-09T16:26:12.542Z,13.55
2023-01-09T16:28:41.136Z,13.98
2023-01-09T16:31:28.955Z,13.90
2023-01-09T16:34:06.968Z,13.15
2023-01-09T16:36:35.811Z,15.90
2023-01-09T16:39:04.239Z,13.82
2023-01-09T16:41:50.294Z,15.95
2023-01-09T16:44:19.359Z,18.38
2023-01-09T16:46:46.807Z,14.43
2023-01-09T16:49:24.647Z,14.05
2023-01-09T16:51:52.071Z,17.08
2023-01-09T16:54:20.079Z,18.27
2023-01-09T16:56:50.826Z,19.52
2023-01-09T16:59:27.027Z,18.73
2023-01-09T17:01:55.159Z,25.40
2023-01-09T17:04:23.920Z,25.02
2023-01-09T17:06:51.555Z,21.63
2023-01-09T17:09:24.102Z,21.15
2023-01-09T17:11:52.320Z,18.52
2023-01-09T17:14:19.356Z,17.15
2023-01-09T17:16:46.890Z,17.27
2023-01-09T17:19:19.582Z,15.35
2023-01-09T17:21:47.230Z,16.77
2023-01-09T17:24:33.337Z,13.23
2023-01-09T17:27:20.838Z,14.77
2023-01-09T17:29:48.594Z,16.83
2023-01-09T17:32:17.612Z,18.70
2023-01-09T17:34:44.899Z,22.52
2023-01-09T17:37:16.605Z,18.65
2023-01-09T17:39:45.299Z,21.17
2023-01-09T17:42:12.338Z,25.88
2023-01-09T17:44:39.527Z,21.45
2023-01-09T17:47:07.423Z,19.10
2023-01-09T17:49:34.539Z,19.80
2023-01-09T17:52:01.609Z,21.67
2023-01-09T17:54:28.772Z,18.85
2023-01-09T17:56:55.938Z,18.05
2023-01-09T17:59:22.980Z,16.23
2023-01-09T18:01:50.221Z,18.58
2023-01-09T18:04:17.471Z,18.23
2023-01-09T18:06:45.093Z,20.95
2023-01-09T18:09:17.482Z,17.15
2023-01-09T18:11:45.204Z,19.08
2023-01-09T18:14:13.751Z,16.38
2023-01-09T18:16:41.146Z,16.63
2023-01-09T18:19:09.390Z,18.65
2023-01-09T18:21:36.419Z,17.08
2023-01-09T18:24:03.623Z,19.38
2023-01-09T18:26:31.467Z,17.10
2023-01-09T18:29:00.378Z,15.50
2023-01-09T18:31:29.033Z,14.43
2023-01-09T18:33:57.691Z,19.20
2023-01-09T18:36:30.330Z,17.02
2023-01-09T18:38:59.404Z,18.77
2023-01-09T18:41:27.341Z,18.90
2023-01-09T18:44:01.079Z,18.50
2023-01-09T18:46:32.279Z,22.63
2023-01-09T18:49:02.032Z,19.58
2023-01-09T18:51:29.764Z,23.00
2023-01-09T18:53:57.414Z,32.22
2023-01-09T18:56:24.927Z,29.02
2023-01-09T18:58:57.238Z,29.88
2023-01-09T19:01:24.887Z,24.27
2023-01-09T19:03:52.294Z,26.30
2023-01-09T19:06:19.557Z,24.17
2023-01-09T19:08:46.771Z,26.58
2023-01-09T19:11:14.001Z,26.05
2023-01-09T19:13:41.308Z,22.08
2023-01-09T19:16:08.793Z,21.58
2023-01-09T19:18:38.603Z,23.33
2023-01-09T19:21:29.883Z,22.33
2023-01-09T19:23:58.921Z,21.13
2023-01-09T19:26:27.995Z,18.63
2023-01-09T19:28:57.627Z,24.33
2023-01-09T19:31:28.326Z,33.92
2023-01-09T19:33:56.508Z,36.67
2023-01-09T19:36:23.574Z,36.17
2023-01-09T19:38:59.546Z,29.42
2023-01-09T19:41:27.222Z,31.55
2023-01-09T19:43:54.568Z,37.70
2023-01-09T19:46:24.142Z,36.58
2023-01-09T19:48:52.340Z,41.38
2023-01-09T19:51:21.313Z,48.15
2023-01-09T19:56:28.648Z,46.25
2023-01-09T19:58:58.349Z,53.05
2023-01-09T20:01:27.934Z,55.65
2023-01-09T20:04:02.869Z,43.28
2023-01-09T20:06:31.011Z,38.85
2023-01-09T20:09:00.799Z,45.20
2023-01-09T20:11:31.537Z,45.45
2023-01-09T20:13:58.688Z,44.50
2023-01-09T20:16:30.240Z,42.30
2023-01-09T20:18:59.756Z,40.58
2023-01-09T20:21:28.435Z,40.97
2023-01-09T20:23:58.309Z,39.45
2023-01-09T20:26:26.049Z,43.80
2023-01-09T20:28:53.856Z,43.67
2023-01-09T20:31:23.170Z,41.83
2023-01-09T20:33:53.724Z,45.35
2023-01-09T20:36:27.448Z,41.75
2023-01-09T20:38:55.371Z,40.08
2023-01-09T20:41:23.009Z,43.45
2023-01-09T20:43:55.808Z,41.55
2023-01-09T20:46:24.681Z,43.42
2023-01-09T20:48:54.583Z,45.67
2023-01-09T20:51:21.785Z,44.72
2023-01-09T20:53:56.290Z,48.05
2023-01-09T20:58:51.841Z,54.80
2023-01-09T21:01:19.678Z,53.80
2023-01-09T21:03:47.015Z,60.42
2023-01-09T21:06:15.652Z,58.33
2023-01-09T21:08:43.651Z,56.00
2023-01-09T21:11:11.694Z,53.28
2023-01-09T21:13:39.511Z,52.15
2023-01-09T21:16:10.355Z,50.67
2023-01-09T21:18:38.684Z,47.53
2023-01-09T21:21:08.397Z,46.85
2023-01-09T21:23:35.910Z,47.13
2023-01-09T21:26:09.296Z,45.30
2023-01-09T21:28:46.684Z,38.80
2023-01-09T21:31:14.256Z,39.95
2023-01-09T21:33:41.531Z,40.25
2023-01-09T21:36:09.916Z,37.10
2023-01-09T21:38:37.240Z,33.70
2023-01-09T21:41:22.964Z,33.15
2023-01-09T21:44:08.507Z,33.38
2023-01-09T21:46:55.836Z,34.88
2023-01-09T21:49:26.484Z,32.38
2023-01-09T21:51:54.768Z,28.98
2023-01-09T21:54:26.030Z,32.83
2023-01-09T21:56:53.411Z,28.52
2023-01-09T21:59:20.755Z,30.50
2023-01-09T22:01:51.701Z,27.83
2023-01-09T22:04:22.399Z,31.33
2023-01-09T22:06:49.843Z,25.52
2023-01-09T22:09:17.270Z,27.17
2023-01-09T22:11:44.673Z,31.75
2023-01-09T22:14:17.500Z,29.35
2023-01-09T22:16:45.870Z,26.15
2023-01-09T22:19:14.359Z,28.00
2023-01-09T22:21:41.460Z,28.88
2023-01-09T22:24:09.394Z,26.25
2023-01-09T22:26:36.476Z,29.70
2023-01-09T22:29:03.544Z,27.90
2023-01-09T22:31:32.935Z,29.95
2023-01-09T22:34:01.361Z,31.02
2023-01-09T22:36:30.000Z,28.92
2023-01-09T22:38:58.539Z,29.77
2023-01-09T22:41:27.552Z,28.25
2023-01-09T22:43:54.562Z,29.30
2023-01-09T22:46:21.613Z,29.77
2023-01-09T22:48:48.896Z,31.30
2023-01-09T22:51:18.535Z,28.75
2023-01-09T22:53:46.296Z,30.92
2023-01-09T22:56:16.460Z,33.35
2023-01-09T22:58:44.150Z,31.55
2023-01-09T23:01:12.877Z,28.95
2023-01-09T23:03:40.489Z,25.60
2023-01-09T23:06:13.696Z,25.52
2023-01-09T23:08:41.411Z,26.45
2023-01-09T23:11:12.393Z,23.27
2023-01-09T23:13:39.596Z,26.65
2023-01-09T23:16:07.553Z,23.60
2023-01-09T23:18:35.131Z,26.85
2023-01-09T23:21:04.153Z,23.40
2023-01-09T23:23:32.219Z,22.35
2023-01-09T23:26:02.271Z,22.83
2023-01-09T23:28:30.653Z,25.02
2023-01-09T23:30:58.047Z,22.67
2023-01-09T23:33:25.529Z,22.98
2023-01-09T23:35:52.625Z,22.65
2023-01-09T23:38:20.669Z,21.85
2023-01-09T23:40:47.889Z,29.70
2023-01-09T23:43:15.569Z,22.10
2023-01-09T23:45:44.976Z,23.08
2023-01-09T23:48:14.251Z,25.45
2023-01-09T23:50:49.181Z,22.27
2023-01-09T23:53:16.816Z,24.45
2023-01-09T23:55:44.467Z,25.08
2023-01-09T23:58:11.955Z,27.00
